Nearby METAR Reports

 

KSJC - San Jose, California, USA
Distance from station: NE 14km
Updated: 20/04/2021 22:53
Few Clouds
Few Clouds
 Wind from WNW
Wind: WNW 19 km/h
Temperature: 18°C
Dew Point: 7°C
Humidity: 49%
Barometer: 1013.2 hPa
Clouds: Few Clouds
Visibility: 16 km
Cloud details: Few Clouds 305 m
Few Clouds 2591 m
2021/04/20 20:53 KSJC 202053Z 30010KT 10SM FEW010 FEW085 18/07 A2992 RMK AO2 SLP131 T01780072 56020
KNUQ - Moffett Nas/Mtn, California, USA
Distance from station: N 14km
Updated: 14/04/2021 00:40
NOT Current

 
2021/04/13 22:40 KNUQ 132240Z AUTO RMK AO2 PNO PWINO TSNO
 
KPAO - Palo Alto, California, USA
Distance from station: NNW 23km
Updated: 20/04/2021 22:47
Partly cloudy
Partly cloudy
 Wind from WNW
Wind: WNW 35 km/h, Gust: 48 km/h
Temperature: 16°C
Dew Point: 8°C
Humidity: 59%
Barometer: 1013.5 hPa
Clouds: Partly cloudy
Visibility: 16 km
Cloud details: Partly cloudy 1524 m
2021/04/20 20:47 KPAO 202047Z 29019G26KT 10SM SCT050 16/08 A2993
KRHV - San Jose/Reid, California, USA
Distance from station: ENE 19km
Updated: 20/04/2021 22:50
Partly cloudy
Partly cloudy
 Wind from NNW
Wind: NNW 9 km/h
Temperature: 19°C
Dew Point: 7°C
Humidity: 46%
Barometer: 1013.2 hPa
Clouds: Partly cloudy
Visibility: 16 km
Cloud details: Partly cloudy 1219 m
Partly cloudy 3658 m
2021/04/20 20:50 KRHV 202050Z 33005KT 10SM SCT040 SCT120 19/07 A2992
 
KOAK - Oakland, California, USA
Distance from station: NNW 50km
Updated: 20/04/2021 22:53
Partly cloudy
Partly cloudy
 Wind from WSW
Wind: WSW 33 km/h
Temperature: 17°C
Dew Point: 9°C
Humidity: 59%
Barometer: 1012.9 hPa
Clouds: Partly cloudy
Visibility: 16 km
Cloud details: Partly cloudy 732 m
2021/04/20 20:53 KOAK 202053Z 25018KT 10SM SCT024 17/09 A2991 RMK AO2 SLP127 T01670094 56021
KSQL - San Carlos Airpo, California, USA
Distance from station: NW 34km
Updated: 20/04/2021 22:47
Mostly cloudy
Mostly cloudy
 Wind from SW
Wind: SW 22 km/h, Gust: 33 km/h
Temperature: 15°C
Dew Point: 8°C
Humidity: 63%
Barometer: 1014.2 hPa
Clouds: Mostly cloudy
Visibility: 16 km
Cloud details: Mostly cloudy 518 m
2021/04/20 20:47 KSQL 202047Z 23012G18KT 10SM BKN017 15/08 A2995
 
KSFO - San Francisco, California, USA
Distance from station: NW 49km
Updated: 20/04/2021 22:56
Mostly cloudy
Mostly cloudy
 Wind from W
Wind: W 31 km/h, Gust: 61 km/h
Temperature: 14°C
Dew Point: 8°C
Humidity: 67%
Barometer: 1012.2 hPa
Clouds: Mostly cloudy
Visibility: 16 km
Cloud details: Few Clouds 183 m
Mostly cloudy 396 m
2021/04/20 20:56 KSFO 202056Z 27017G33KT 10SM FEW006 BKN013 14/08 A2989 RMK AO2 PK WND 28033/2049 PRESFR SLP122 T01440083 58025
KE16 - San Martin, California, USA
Distance from station: ESE 43km
Updated: 20/04/2021 23:35
Clear
Clear
 Wind from SSE
Wind: SSE 19 km/h, Gust: 26 km/h
Temperature: 18°C
Dew Point: 9°C
Humidity: 56%
Barometer: 1012.9 hPa
Clouds: Clear
Visibility: 16 km
2021/04/20 21:35 KE16 202135Z AUTO 16010G14KT 130V190 10SM CLR 18/09 A2991 RMK AO2 PWINO PNO
 
KWVI - Watsonville, California, USA
Distance from station: SSE 44km
Updated: 20/04/2021 22:53
Clear
Clear
 Wind from WSW
Wind: WSW 17 km/h
Temperature: 17°C
Dew Point: 10°C
Humidity: 64%
Barometer: 1014.2 hPa
Clouds: Clear
Visibility: 16 km
2021/04/20 20:53 KWVI 202053Z AUTO 24009KT 10SM CLR 17/10 A2995 RMK AO2 SLP140 T01670100 58020
KHAF - Half Moon Bay, California, USA
Distance from station: WNW 50km
Updated: 20/04/2021 23:35
Haze, Overcast
Haze, Overcast
 Wind from NW
Wind: NW 30 km/h, Gust: 43 km/h
Temperature: 12°C
Dew Point: 8°C
Humidity: 77%
Barometer: 1014.6 hPa
Summary: Haze
Clouds: Overcast
Visibility: 6 km
Cloud details: Overcast 366 m
2021/04/20 21:35 KHAF 202135Z AUTO 32016G23KT 4SM HZ OVC012 12/08 A2996 RMK AO2
 
KHWD - Hayward, California, USA
Distance from station: N 44km
Updated: 20/04/2021 23:01
Overcast
Overcast
 Wind from WSW
Wind: WSW 24 km/h, Gust: 43 km/h
Temperature: 14°C
Dew Point: 8°C
Humidity: 67%
Barometer: 1013.2 hPa
Clouds: Overcast
Visibility: 16 km
Cloud details: Overcast 488 m
2021/04/20 21:01 KHWD 202101Z 25013G23KT 10SM OVC016 14/08 A2992 RMK AO2 T01390083
KLVK - Livermore, California, USA
Distance from station: NNE 51km
Updated: 20/04/2021 22:53
Clear
Clear
 Wind from SSW
Wind: SSW 28 km/h, Gust: 39 km/h
Temperature: 18°C
Dew Point: 7°C
Humidity: 49%
Barometer: 1012.2 hPa
Clouds: Clear
Visibility: 16 km
2021/04/20 20:53 KLVK 202053Z 21015G21KT 10SM CLR 18/07 A2989 RMK AO2 SLP118 T01830072 58019